createdAt,value
2022-09-23T00:01:22.461Z,92.58
2022-09-23T00:03:50.278Z,92.62
2022-09-23T00:06:21.531Z,92.60
2022-09-23T00:08:50.239Z,92.58
2022-09-23T00:11:26.424Z,92.63
2022-09-23T00:13:56.884Z,92.58
2022-09-23T00:16:28.504Z,92.38
2022-09-23T00:18:56.902Z,92.62
2022-09-23T00:21:25.189Z,92.41
2022-09-23T00:23:53.667Z,92.47
2022-09-23T00:26:23.043Z,92.71
2022-09-23T00:28:51.780Z,92.62
2022-09-23T00:31:25.890Z,92.57
2022-09-23T00:33:59.291Z,92.79
2022-09-23T00:36:28.543Z,92.65
2022-09-23T00:38:56.223Z,92.70
2022-09-23T00:41:25.147Z,92.98
2022-09-23T00:43:56.668Z,93.08
2022-09-23T00:46:33.940Z,92.98
2022-09-23T00:49:06.526Z,92.89
2022-09-23T00:51:39.512Z,92.72
2022-09-23T00:54:07.919Z,92.47
2022-09-23T00:56:38.423Z,92.62
2022-09-23T00:59:09.684Z,92.49
2022-09-23T01:01:39.015Z,92.61
2022-09-23T01:04:07.968Z,92.48
2022-09-23T01:06:36.151Z,92.33
2022-09-23T01:09:04.311Z,92.22
2022-09-23T01:11:51.081Z,92.07
2022-09-23T01:14:48.700Z,92.22
2022-09-23T01:17:29.378Z,92.27
2022-09-23T01:20:29.010Z,92.36
2022-09-23T01:23:17.818Z,92.48
2022-09-23T01:26:08.006Z,92.62
2022-09-23T01:28:54.730Z,92.73
2022-09-23T01:31:42.860Z,92.80
2022-09-23T01:34:25.536Z,92.79
2022-09-23T01:37:03.282Z,92.67
2022-09-23T01:39:38.844Z,92.80
2022-09-23T01:42:10.596Z,92.72
2022-09-23T01:44:48.783Z,93.24
2022-09-23T01:47:22.784Z,92.91
2022-09-23T01:50:00.097Z,93.03
2022-09-23T01:52:35.922Z,93.07
2022-09-23T01:55:23.882Z,92.92
2022-09-23T01:58:08.373Z,92.93
2022-09-23T02:00:42.687Z,92.86
2022-09-23T02:03:47.243Z,92.62
2022-09-23T02:06:23.215Z,92.74
2022-09-23T02:09:02.819Z,92.53
2022-09-23T02:11:36.209Z,92.62
2022-09-23T02:14:27.558Z,92.58
2022-09-23T02:17:00.737Z,92.91
2022-09-23T02:19:55.524Z,93.13
2022-09-23T02:22:30.716Z,93.04
2022-09-23T02:24:58.805Z,92.99
2022-09-23T02:27:36.293Z,92.99
2022-09-23T02:30:12.025Z,93.08
2022-09-23T02:33:02.631Z,92.98
2022-09-23T02:35:53.228Z,93.02
2022-09-23T02:38:44.649Z,92.98
2022-09-23T02:41:32.615Z,93.00
2022-09-23T02:44:06.325Z,92.88
2022-09-23T02:46:35.456Z,92.77
2022-09-23T02:49:13.529Z,92.87
2022-09-23T02:51:41.603Z,92.81
2022-09-23T02:54:14.998Z,92.70
2022-09-23T02:56:42.947Z,92.67
2022-09-23T02:59:12.536Z,92.76
2022-09-23T03:01:56.592Z,92.78
2022-09-23T03:04:40.325Z,92.95
2022-09-23T03:07:33.562Z,92.93
2022-09-23T03:10:33.186Z,93.40
2022-09-23T03:13:14.714Z,93.34
2022-09-23T03:16:05.185Z,93.45
2022-09-23T03:18:42.693Z,93.19
2022-09-23T03:21:33.683Z,93.07
2022-09-23T03:24:06.905Z,93.11
2022-09-23T03:26:37.615Z,92.92
2022-09-23T03:29:11.357Z,92.70
2022-09-23T03:31:42.506Z,92.33
2022-09-23T03:34:16.235Z,92.08
2022-09-23T03:37:26.193Z,92.30
2022-09-23T03:40:13.748Z,92.15
2022-09-23T03:42:42.010Z,92.30
2022-09-23T03:45:18.430Z,92.51
2022-09-23T03:47:46.130Z,92.59
2022-09-23T03:50:14.110Z,92.63
2022-09-23T03:52:41.745Z,92.65
2022-09-23T03:55:11.379Z,92.70
2022-09-23T03:57:39.630Z,92.42
2022-09-23T04:00:08.008Z,92.40
2022-09-23T04:02:41.871Z,92.12
2022-09-23T04:05:11.487Z,92.30
2022-09-23T04:07:39.498Z,92.38
2022-09-23T04:10:08.034Z,92.73
2022-09-23T04:12:37.840Z,92.71
2022-09-23T04:15:06.452Z,92.83
2022-09-23T04:17:34.411Z,92.77
2022-09-23T04:20:02.535Z,92.80
2022-09-23T04:22:31.059Z,93.00
2022-09-23T04:24:58.738Z,93.13
2022-09-23T04:27:26.586Z,93.19
2022-09-23T04:29:54.324Z,92.98
2022-09-23T04:32:22.033Z,93.31
2022-09-23T04:34:49.747Z,93.69
2022-09-23T04:37:17.468Z,93.65
2022-09-23T04:39:45.148Z,93.66
2022-09-23T04:42:12.838Z,93.52
2022-09-23T04:44:40.692Z,93.52
2022-09-23T04:47:08.453Z,93.33
2022-09-23T04:49:36.177Z,93.00
2022-09-23T04:52:05.336Z,93.12
2022-09-23T04:54:33.116Z,93.31
2022-09-23T04:57:00.855Z,93.09
2022-09-23T04:59:28.648Z,93.08
2022-09-23T05:01:56.386Z,93.08
2022-09-23T05:04:24.585Z,92.88
2022-09-23T05:06:52.268Z,93.21
2022-09-23T05:09:20.030Z,93.28
2022-09-23T05:11:48.266Z,93.57
2022-09-23T05:14:16.057Z,93.48
2022-09-23T05:16:43.906Z,93.67
2022-09-23T05:19:13.598Z,93.35
2022-09-23T05:21:41.619Z,93.42
2022-09-23T05:24:09.863Z,93.61
2022-09-23T05:26:38.463Z,93.58
2022-09-23T05:29:06.548Z,93.62
2022-09-23T05:31:35.097Z,93.49
2022-09-23T05:34:05.211Z,93.42
2022-09-23T05:36:38.708Z,93.69
2022-09-23T05:39:08.748Z,93.56
2022-09-23T05:41:36.732Z,93.59
2022-09-23T05:44:05.027Z,93.71
2022-09-23T05:46:33.364Z,93.45
2022-09-23T05:49:03.623Z,93.20
2022-09-23T05:51:34.326Z,93.01
2022-09-23T05:54:04.412Z,93.07
2022-09-23T05:56:34.843Z,92.59
2022-09-23T05:59:04.071Z,93.10
2022-09-23T06:01:35.413Z,92.76
2022-09-23T06:04:05.786Z,92.34
2022-09-23T06:06:39.572Z,93.18
2022-09-23T06:09:11.702Z,93.09
2022-09-23T06:11:41.954Z,93.39
2022-09-23T06:14:12.859Z,93.69
2022-09-23T06:16:41.396Z,93.82
2022-09-23T06:19:10.495Z,93.65
2022-09-23T06:21:40.547Z,94.00
2022-09-23T06:24:21.308Z,94.26
2022-09-23T06:27:09.850Z,94.03
2022-09-23T06:29:40.130Z,93.98
2022-09-23T06:32:09.077Z,93.93
2022-09-23T06:34:51.555Z,93.72
2022-09-23T06:37:21.000Z,93.72
2022-09-23T06:39:54.890Z,94.01
2022-09-23T06:42:22.988Z,94.15
2022-09-23T06:44:52.648Z,94.12
2022-09-23T06:47:22.929Z,94.15
2022-09-23T06:49:51.557Z,94.37
2022-09-23T06:52:21.221Z,94.23
2022-09-23T06:54:49.115Z,94.59
2022-09-23T06:57:16.957Z,94.27
2022-09-23T06:59:44.906Z,94.16
2022-09-23T07:02:13.458Z,94.75
2022-09-23T07:04:41.549Z,94.79
2022-09-23T07:07:11.536Z,94.60
2022-09-23T07:09:39.539Z,95.00
2022-09-23T07:12:08.265Z,95.10
2022-09-23T07:14:36.191Z,95.26
2022-09-23T07:17:04.322Z,95.51
2022-09-23T07:19:32.523Z,95.53
2022-09-23T07:22:00.453Z,95.42
2022-09-23T07:24:28.330Z,95.49
2022-09-23T07:26:56.217Z,95.53
2022-09-23T07:29:24.052Z,95.08
2022-09-23T07:31:52.690Z,95.06
2022-09-23T07:34:21.922Z,94.86
2022-09-23T07:36:50.308Z,95.12
2022-09-23T07:39:18.197Z,95.22
2022-09-23T07:41:46.003Z,95.19
2022-09-23T07:44:13.884Z,95.54
2022-09-23T07:46:41.995Z,95.97
2022-09-23T07:49:10.691Z,96.14
2022-09-23T07:51:40.487Z,95.66
2022-09-23T07:54:13.052Z,95.03
2022-09-23T07:56:42.450Z,94.78
2022-09-23T07:59:18.079Z,94.92
2022-09-23T08:01:49.103Z,94.86
2022-09-23T08:04:26.849Z,94.63
2022-09-23T08:07:06.128Z,94.41
2022-09-23T08:09:41.633Z,94.36
2022-09-23T08:12:18.881Z,94.02
2022-09-23T08:14:46.726Z,93.82
2022-09-23T08:17:14.959Z,94.10
2022-09-23T08:19:42.816Z,94.43
2022-09-23T08:22:12.113Z,94.13
2022-09-23T08:24:39.945Z,93.96
2022-09-23T08:27:08.129Z,94.02
2022-09-23T08:29:36.019Z,94.07
2022-09-23T08:32:03.947Z,93.72
2022-09-23T08:34:31.776Z,93.89
2022-09-23T08:36:59.625Z,94.27
2022-09-23T08:39:27.489Z,94.31
2022-09-23T08:42:12.470Z,93.76
2022-09-23T08:44:58.997Z,93.79
2022-09-23T08:47:43.836Z,93.40
2022-09-23T08:50:18.147Z,93.04
2022-09-23T08:53:04.759Z,93.52
2022-09-23T08:55:50.856Z,93.37
2022-09-23T08:58:51.203Z,92.77
2022-09-23T09:01:41.554Z,92.63
2022-09-23T09:04:18.569Z,91.85
2022-09-23T09:10:09.149Z,91.10
2022-09-23T09:12:59.373Z,91.34
2022-09-23T09:15:28.542Z,90.31
2022-09-23T09:18:02.464Z,89.85
2022-09-23T09:20:35.035Z,89.12
2022-09-23T09:23:23.382Z,90.00
2022-09-23T09:25:54.443Z,89.04
2022-09-23T09:28:31.007Z,88.50
2022-09-23T09:31:26.847Z,87.94
2022-09-23T09:33:59.543Z,88.43
2022-09-23T09:36:38.357Z,88.25
2022-09-23T09:39:06.955Z,87.95
2022-09-23T09:41:35.003Z,88.13
2022-09-23T09:44:19.660Z,87.84
2022-09-23T09:47:20.919Z,88.15
2022-09-23T09:49:59.107Z,87.50
2022-09-23T09:52:29.711Z,86.81
2022-09-23T09:55:14.270Z,86.23
2022-09-23T09:57:52.325Z,85.65
2022-09-23T10:00:26.920Z,86.02
2022-09-23T10:03:04.651Z,86.38
2022-09-23T10:05:51.768Z,86.15
2022-09-23T10:08:37.918Z,85.81
2022-09-23T10:11:21.083Z,85.36
2022-09-23T10:14:26.480Z,85.14
2022-09-23T10:17:05.900Z,84.47
2022-09-23T10:19:41.984Z,84.12
2022-09-23T10:22:32.129Z,83.16
2022-09-23T10:25:07.608Z,83.25
2022-09-23T10:27:37.066Z,83.76
2022-09-23T10:30:21.843Z,83.69
2022-09-23T10:32:53.234Z,82.91
2022-09-23T10:35:24.462Z,80.80
2022-09-23T10:37:59.899Z,81.24
2022-09-23T10:44:11.560Z,79.56
2022-09-23T10:46:53.045Z,80.39
2022-09-23T10:49:35.817Z,81.22
2022-09-23T10:52:36.776Z,81.40
2022-09-23T10:55:29.064Z,80.74
2022-09-23T10:58:17.729Z,80.50
2022-09-23T11:00:52.271Z,81.46
2022-09-23T11:03:42.427Z,80.87
2022-09-23T11:06:21.106Z,80.89
2022-09-23T11:09:05.397Z,80.42
2022-09-23T11:12:02.227Z,80.30
2022-09-23T11:14:53.011Z,79.27
2022-09-23T11:17:39.561Z,79.74
2022-09-23T11:20:30.253Z,78.12
2022-09-23T11:23:37.913Z,78.36
2022-09-23T11:26:20.639Z,77.98
2022-09-23T11:29:20.372Z,76.93
2022-09-23T11:32:14.318Z,76.62
2022-09-23T11:34:42.005Z,75.65
2022-09-23T11:37:22.141Z,75.59
2022-09-23T11:39:57.674Z,74.06
2022-09-23T11:42:32.231Z,74.67
2022-09-23T11:45:15.031Z,75.79
2022-09-23T11:47:50.382Z,74.80
2022-09-23T11:50:29.587Z,75.54
2022-09-23T11:53:36.813Z,74.92
2022-09-23T11:56:27.520Z,72.93
2022-09-23T11:59:39.678Z,70.68
2022-09-23T12:02:33.599Z,72.19
2022-09-23T12:05:09.559Z,71.81
2022-09-23T12:08:06.575Z,71.99
2022-09-23T12:10:55.923Z,71.59
2022-09-23T12:13:47.373Z,69.64
2022-09-23T12:16:37.335Z,70.18
2022-09-23T12:19:37.199Z,66.90
2022-09-23T12:22:24.065Z,67.15
2022-09-23T12:25:10.363Z,69.16
2022-09-23T12:27:45.607Z,68.18
2022-09-23T12:30:23.170Z,66.98
2022-09-23T12:32:51.320Z,67.86
2022-09-23T12:35:38.527Z,68.16
2022-09-23T12:38:38.331Z,66.44
2022-09-23T12:41:19.194Z,67.56
2022-09-23T12:44:21.136Z,66.55
2022-09-23T12:47:14.663Z,67.10
2022-09-23T12:49:43.720Z,67.23
2022-09-23T12:52:11.752Z,67.32
2022-09-23T12:54:41.402Z,68.13
2022-09-23T12:57:34.836Z,68.05
2022-09-23T13:00:12.879Z,68.15
2022-09-23T13:02:42.912Z,68.17
2022-09-23T13:05:36.564Z,67.50
2022-09-23T13:08:23.082Z,66.48
2022-09-23T13:11:00.182Z,66.02
2022-09-23T13:13:32.477Z,66.19
2022-09-23T13:16:16.391Z,65.13
2022-09-23T13:18:52.603Z,64.87
2022-09-23T13:21:42.103Z,64.33
2022-09-23T13:24:12.971Z,63.95
2022-09-23T13:26:46.644Z,63.86
2022-09-23T13:29:26.827Z,64.43
2022-09-23T13:31:58.143Z,63.31
2022-09-23T13:34:32.791Z,63.00
2022-09-23T13:37:37.911Z,63.41
2022-09-23T13:40:25.401Z,63.91
2022-09-23T13:43:03.175Z,63.90
2022-09-23T13:45:36.182Z,62.74
2022-09-23T13:48:15.221Z,63.06
2022-09-23T13:50:48.539Z,62.72
2022-09-23T13:53:23.276Z,63.05
2022-09-23T13:56:16.367Z,62.29
2022-09-23T13:58:44.289Z,62.19
2022-09-23T14:01:36.183Z,62.78
2022-09-23T14:04:04.130Z,61.37
2022-09-23T14:06:38.353Z,62.54
2022-09-23T14:09:06.644Z,61.66
2022-09-23T14:11:35.516Z,61.69
2022-09-23T14:14:08.115Z,61.03
2022-09-23T14:16:39.658Z,61.19
2022-09-23T14:19:17.517Z,61.72
2022-09-23T14:21:52.927Z,61.65
2022-09-23T14:24:30.903Z,60.91
2022-09-23T14:27:04.375Z,61.00
2022-09-23T14:29:44.154Z,61.75
2022-09-23T14:32:17.584Z,61.73
2022-09-23T14:35:02.685Z,61.66
2022-09-23T14:37:47.125Z,61.97
2022-09-23T14:40:21.541Z,62.20
2022-09-23T14:42:52.488Z,61.77
2022-09-23T14:45:24.714Z,61.63
2022-09-23T14:48:18.751Z,62.22
2022-09-23T14:50:48.549Z,62.28
2022-09-23T14:53:22.745Z,62.65
2022-09-23T14:55:59.671Z,62.94
2022-09-23T14:58:28.746Z,62.18
2022-09-23T15:01:00.337Z,61.74
2022-09-23T15:03:28.928Z,60.80
2022-09-23T15:06:09.245Z,60.81
2022-09-23T15:08:37.244Z,60.47
2022-09-23T15:11:08.379Z,60.11
2022-09-23T15:13:44.230Z,59.60
2022-09-23T15:16:15.344Z,59.28
2022-09-23T15:18:46.366Z,58.92
2022-09-23T15:29:09.666Z,58.23
2022-09-23T15:31:37.700Z,57.89
2022-09-23T15:34:06.066Z,57.49
2022-09-23T15:36:34.917Z,57.92
2022-09-23T15:39:05.968Z,58.35
2022-09-23T15:41:34.180Z,58.71
2022-09-23T15:44:29.876Z,58.70
2022-09-23T15:47:01.204Z,58.76
2022-09-23T15:49:33.956Z,59.05
2022-09-23T15:52:04.140Z,59.20
2022-09-23T15:54:33.813Z,59.61
2022-09-23T15:57:02.088Z,59.79
2022-09-23T15:59:33.334Z,59.98
2022-09-23T16:02:07.922Z,59.69
2022-09-23T16:04:36.047Z,59.60
2022-09-23T16:07:05.627Z,59.62
2022-09-23T16:09:33.574Z,59.73
2022-09-23T16:12:03.265Z,60.08
2022-09-23T16:14:31.094Z,60.63
2022-09-23T16:16:59.030Z,60.81
2022-09-23T16:19:27.659Z,60.93
2022-09-23T16:21:55.581Z,61.13
2022-09-23T16:24:28.003Z,61.18
2022-09-23T16:27:00.007Z,61.25
2022-09-23T16:29:27.938Z,61.23
2022-09-23T16:31:55.892Z,61.12
2022-09-23T16:34:23.887Z,61.20
2022-09-23T16:36:51.763Z,61.15
2022-09-23T16:39:20.622Z,61.40
2022-09-23T16:41:48.491Z,61.37
2022-09-23T16:44:16.447Z,61.41
2022-09-23T16:46:44.355Z,61.58
2022-09-23T16:49:13.499Z,61.89
2022-09-23T16:51:41.386Z,62.10
2022-09-23T16:54:12.260Z,62.36
2022-09-23T16:56:44.254Z,62.67
2022-09-23T16:59:13.666Z,62.83
2022-09-23T17:01:58.308Z,62.96
2022-09-23T17:04:27.641Z,63.09
2022-09-23T17:06:56.529Z,63.06
2022-09-23T17:09:27.447Z,63.00
2022-09-23T17:11:59.819Z,63.12
2022-09-23T17:14:31.081Z,63.39
2022-09-23T17:16:59.047Z,63.34
2022-09-23T17:19:27.018Z,62.68
2022-09-23T17:21:54.917Z,62.81
2022-09-23T17:24:22.814Z,63.05
2022-09-23T17:26:53.319Z,63.30
2022-09-23T17:29:21.758Z,63.54
2022-09-23T17:31:49.971Z,63.85
2022-09-23T17:34:21.386Z,64.01
2022-09-23T17:36:49.628Z,64.20
2022-09-23T17:39:17.915Z,64.05
2022-09-23T17:41:45.747Z,64.55
2022-09-23T17:44:15.544Z,64.50
2022-09-23T17:46:43.718Z,64.53
2022-09-23T17:49:12.175Z,64.77
2022-09-23T17:51:40.538Z,64.85
2022-09-23T17:54:08.916Z,64.75
2022-09-23T17:56:36.804Z,64.73
2022-09-23T17:59:04.709Z,64.76
2022-09-23T18:01:32.968Z,64.89
2022-09-23T18:04:05.651Z,65.02
2022-09-23T18:06:35.801Z,65.28
2022-09-23T18:09:06.675Z,65.41
2022-09-23T18:11:40.092Z,65.38
2022-09-23T18:14:23.031Z,65.34
2022-09-23T18:16:53.634Z,65.37
2022-09-23T18:19:24.559Z,65.54
2022-09-23T18:21:56.381Z,65.63
2022-09-23T18:24:32.214Z,65.76
2022-09-23T18:27:02.291Z,66.02
2022-09-23T18:29:30.387Z,66.12
2022-09-23T18:31:59.443Z,66.38
2022-09-23T18:34:28.883Z,66.41
2022-09-23T18:36:57.048Z,66.67
2022-09-23T18:39:25.053Z,66.76
2022-09-23T18:41:53.098Z,66.98
2022-09-23T18:44:21.147Z,67.10
2022-09-23T18:46:49.074Z,67.18
2022-09-23T18:49:32.871Z,67.26
2022-09-23T18:52:00.747Z,67.38
2022-09-23T18:54:29.052Z,67.67
2022-09-23T18:56:57.712Z,67.42
2022-09-23T18:59:29.674Z,67.58
2022-09-23T19:01:59.095Z,67.64
2022-09-23T19:04:27.359Z,67.65
2022-09-23T19:06:57.241Z,67.74
2022-09-23T19:09:25.770Z,67.86
2022-09-23T19:11:53.804Z,67.85
2022-09-23T19:14:22.347Z,67.97
2022-09-23T19:16:50.944Z,67.94
2022-09-23T19:19:19.155Z,68.04
2022-09-23T19:21:47.422Z,68.13
2022-09-23T19:24:20.562Z,68.55
2022-09-23T19:26:50.325Z,68.84
2022-09-23T19:29:22.144Z,68.98
2022-09-23T19:31:51.226Z,68.99
2022-09-23T19:34:23.907Z,68.97
2022-09-23T19:36:55.905Z,69.04
2022-09-23T19:39:26.932Z,69.02
2022-09-23T19:41:58.817Z,69.25
2022-09-23T19:44:27.345Z,69.38
2022-09-23T19:46:57.284Z,69.28
2022-09-23T19:49:26.089Z,69.21
2022-09-23T19:51:55.942Z,69.30
2022-09-23T19:54:27.351Z,69.49
2022-09-23T19:56:55.670Z,69.77
2022-09-23T19:59:23.626Z,70.16
2022-09-23T20:01:51.643Z,70.25
2022-09-23T20:04:20.267Z,70.20
2022-09-23T20:06:49.586Z,70.24
2022-09-23T20:09:17.515Z,70.19
2022-09-23T20:11:45.438Z,70.58
2022-09-23T20:14:13.765Z,70.69
2022-09-23T20:16:41.911Z,71.05
2022-09-23T20:19:12.977Z,71.03
2022-09-23T20:21:40.847Z,71.08
2022-09-23T20:24:09.754Z,71.32
2022-09-23T20:26:53.974Z,71.45
2022-09-23T20:29:22.493Z,71.66
2022-09-23T20:31:50.561Z,71.73
2022-09-23T20:34:18.557Z,71.47
2022-09-23T20:36:46.454Z,71.59
2022-09-23T20:39:14.362Z,71.44
2022-09-23T20:41:42.252Z,71.53
2022-09-23T20:44:14.255Z,71.41
2022-09-23T20:46:48.451Z,71.62
2022-09-23T20:49:17.734Z,71.58
2022-09-23T20:51:48.680Z,71.62
2022-09-23T20:54:20.397Z,71.74
2022-09-23T20:56:48.319Z,71.89
2022-09-23T20:59:18.199Z,71.72
2022-09-23T21:01:46.642Z,71.66
2022-09-23T21:04:15.072Z,71.81
2022-09-23T21:06:42.973Z,72.00
2022-09-23T21:09:10.824Z,72.03
2022-09-23T21:11:38.820Z,72.09
2022-09-23T21:14:07.086Z,72.12
2022-09-23T21:16:35.343Z,72.24
2022-09-23T21:19:03.917Z,72.15
2022-09-23T21:21:31.951Z,72.11
2022-09-23T21:24:24.462Z,72.23
2022-09-23T21:26:50.301Z,72.70
2022-09-23T21:29:18.393Z,72.66
2022-09-23T21:31:48.495Z,72.80
2022-09-23T21:34:16.905Z,72.88
2022-09-23T21:36:46.214Z,72.91
2022-09-23T21:39:14.703Z,72.95
2022-09-23T21:41:42.596Z,72.95
2022-09-23T21:44:12.075Z,73.14
2022-09-23T21:46:40.062Z,73.17
2022-09-23T21:49:09.159Z,73.08
2022-09-23T21:51:41.117Z,73.21
2022-09-23T21:54:15.920Z,73.62
2022-09-23T21:56:44.115Z,73.26
2022-09-23T21:59:12.377Z,73.48
2022-09-23T22:01:44.477Z,73.65
2022-09-23T22:04:18.067Z,73.42
2022-09-23T22:06:46.831Z,73.74
2022-09-23T22:09:18.617Z,73.93
2022-09-23T22:12:03.037Z,73.78
2022-09-23T22:14:31.324Z,73.66
2022-09-23T22:17:04.457Z,73.91
2022-09-23T22:19:42.687Z,73.91
2022-09-23T22:22:17.832Z,74.02
2022-09-23T22:24:47.695Z,74.26
2022-09-23T22:27:18.886Z,74.17
2022-09-23T22:30:03.373Z,74.37
2022-09-23T22:32:52.847Z,74.43
2022-09-23T22:35:22.428Z,74.45
2022-09-23T22:37:50.428Z,74.63
2022-09-23T22:40:18.653Z,74.60
2022-09-23T22:42:46.715Z,74.60
2022-09-23T22:45:14.900Z,74.76
2022-09-23T22:47:45.544Z,74.57
2022-09-23T22:50:14.963Z,74.97
2022-09-23T22:52:43.826Z,74.76
2022-09-23T22:55:12.452Z,75.01
2022-09-23T22:57:40.736Z,75.17
2022-09-23T23:00:09.944Z,75.09
2022-09-23T23:02:37.795Z,75.07
2022-09-23T23:05:06.279Z,75.23
2022-09-23T23:07:35.073Z,75.33
2022-09-23T23:10:04.650Z,75.47
2022-09-23T23:12:33.557Z,75.49
2022-09-23T23:15:01.495Z,75.47
2022-09-23T23:17:29.912Z,75.43
2022-09-23T23:19:58.053Z,75.60
2022-09-23T23:22:28.525Z,75.60
2022-09-23T23:24:56.934Z,75.51
2022-09-23T23:27:24.830Z,75.85
2022-09-23T23:29:52.728Z,75.80
2022-09-23T23:32:20.566Z,75.96
2022-09-23T23:34:48.418Z,75.97
2022-09-23T23:37:20.630Z,75.92
2022-09-23T23:39:49.071Z,75.95
2022-09-23T23:42:17.675Z,76.12
2022-09-23T23:44:45.887Z,76.22
2022-09-23T23:47:13.813Z,76.27
2022-09-23T23:49:41.696Z,76.28
2022-09-23T23:52:09.633Z,76.20
2022-09-23T23:54:37.861Z,76.49
2022-09-23T23:57:05.913Z,76.38
2022-09-23T23:59:34.591Z,76.22
